Élőkép

Információk

Albatrosz Repülő Egyesület
8000 Székesfehérvár,
Radványi utca 6.

Adószám:
19092908-2-07

Bankszámla szám:
Budapest Bank
10102952-01361819-00000001

Telefon: +36 30 9598-897

Telephey: Börgönd repülőtér

Börgöndi repülõtér

LHBP METAR/TAF

[source: ADDS]
METAR
TAF LHBP 012300Z 0200/0224 35005KT 8000 SCT035 BKN080 TEMPO 0202/0210 VRB02KT 3000 -RADZ BR SCT008 BKN015 OVC040 PROB30 TEMPO 0203/0208 1200 BCFG OVC002 TEMPO 0212/0218 06008KT 5000 SHRA FEW015CB BKN025 BECMG 0219/0222 VRB02KT 4000 MIFG BR NSC TEMPO 0222/0224 1500 BCFG SCT001 TAF
TAF LHBP 012300Z 0200/0224 35005KT 8000 SCT035 BKN080 TEMPO 0202/0210 VRB02KT 3000 -RADZ BR SCT008 BKN015 OVC040 PROB30 TEMPO 0203/0208 1200 BCFG OVC002 TEMPO 0212/0218 06008KT 5000 SHRA FEW015CB BKN025 BECMG 0219/0222 VRB02KT 4000 MIFG BR NSC TEMPO 0222/0224 1500 BCFG SCT001 =
SR / SS: 04:48 / 16:25 UTC (Börgönd 2014-10-02)
Hungarian Chinese (Simplified) Croatian Czech English Finnish French German Hebrew Italian Japanese Polish Portuguese Romanian Russian Serbian Slovak Slovenian Spanish

Belépés tagoknak